Time;durP1;ratioP1;P1;durP2;ratioP2;P2;SDS_P1;SDS_P2;PMS_P1;PMS_P2;Temp;Humidity;BMP_temperature;BMP_pressure;BME280_temperature;BME280_humidity;BME280_pressure;Samples;Min_cycle;Max_cycle;Signal;HPM_P1;HPM_P2
2021/04/25 00:00:28;;;;;;;18.60;10.20;;;20.50;66.60;;;;;;5092171;28;20017;-74
2021/04/25 00:02:55;;;;;;;20.50;11.13;;;20.40;66.60;;;;;;5091449;28;20119;-75
2021/04/25 00:05:21;;;;;;;15.30;8.32;;;20.50;66.70;;;;;;5092338;28;20502;-74
2021/04/25 00:07:48;;;;;;;18.50;8.82;;;20.50;66.80;;;;;;5091037;28;20103;-74
2021/04/25 00:10:17;;;;;;;18.75;9.25;;;20.40;66.70;;;;;;5084763;28;20028;-73
2021/04/25 00:12:44;;;;;;;17.83;8.63;;;20.40;66.70;;;;;;5088506;28;20025;-73
2021/04/25 00:15:20;;;;;;;19.90;8.45;;;20.40;66.70;;;;;;5083542;28;20024;-74
2021/04/25 00:17:46;;;;;;;19.35;8.55;;;20.50;66.80;;;;;;5091749;28;20020;-74
2021/04/25 00:20:13;;;;;;;17.55;8.25;;;20.40;66.70;;;;;;5090071;28;20024;-74
2021/04/25 00:22:40;;;;;;;18.83;8.20;;;20.50;66.80;;;;;;5092028;28;20022;-74
2021/04/25 00:25:08;;;;;;;15.93;8.60;;;20.40;66.80;;;;;;5090518;28;20078;-74
2021/04/25 00:27:35;;;;;;;19.30;8.90;;;20.40;66.80;;;;;;5091793;28;20028;-74
2021/04/25 00:30:03;;;;;;;17.63;8.20;;;20.40;66.80;;;;;;5083384;28;20122;-74
2021/04/25 00:32:30;;;;;;;18.70;8.85;;;20.40;66.80;;;;;;5085164;28;20497;-74
2021/04/25 00:34:56;;;;;;;17.02;8.55;;;20.40;66.80;;;;;;5091179;28;20475;-74
2021/04/25 00:37:23;;;;;;;16.35;8.05;;;20.40;66.90;;;;;;5087418;28;20093;-74
2021/04/25 00:39:49;;;;;;;20.10;8.50;;;20.40;66.90;;;;;;5090947;28;20030;-74
2021/04/25 00:42:17;;;;;;;18.30;9.65;;;20.40;66.90;;;;;;5090296;28;20455;-74
2021/04/25 00:44:47;;;;;;;17.77;8.60;;;20.40;67.00;;;;;;5091630;28;20057;-74
2021/04/25 00:47:14;;;;;;;20.63;8.77;;;20.30;66.90;;;;;;5090389;28;20020;-74
2021/04/25 00:49:41;;;;;;;17.85;8.63;;;20.40;67.00;;;;;;5091154;28;20355;-74
2021/04/25 00:52:08;;;;;;;19.35;8.20;;;20.40;67.10;;;;;;5091057;28;20020;-75
2021/04/25 00:54:40;;;;;;;17.45;8.40;;;20.40;67.10;;;;;;5089455;28;20023;-75
2021/04/25 00:57:07;;;;;;;21.30;8.52;;;20.30;67.00;;;;;;5091320;28;20024;-75
2021/04/25 00:59:34;;;;;;;18.85;7.97;;;20.30;67.10;;;;;;5090108;28;20028;-75
2021/04/25 01:02:00;;;;;;;18.38;8.02;;;20.30;67.10;;;;;;5088999;28;20073;-75
2021/04/25 01:04:27;;;;;;;16.15;8.80;;;20.30;67.10;;;;;;5089616;28;20054;-75
2021/04/25 01:06:54;;;;;;;16.73;8.50;;;20.30;67.10;;;;;;5091185;28;20116;-75
2021/04/25 01:09:20;;;;;;;18.58;8.65;;;20.40;67.20;;;;;;5089958;28;20462;-74
2021/04/25 01:11:47;;;;;;;16.10;8.10;;;20.30;67.10;;;;;;5090697;28;20093;-75
2021/04/25 01:14:13;;;;;;;11.80;7.70;;;20.30;67.10;;;;;;5090500;28;20032;-75
2021/04/25 01:16:40;;;;;;;18.80;8.68;;;20.30;67.20;;;;;;5090065;28;20012;-74
2021/04/25 01:19:07;;;;;;;14.73;7.53;;;20.30;67.20;;;;;;5090771;28;20031;-74
2021/04/25 01:21:33;;;;;;;18.15;8.23;;;20.30;67.30;;;;;;5089778;28;20008;-74
2021/04/25 01:24:00;;;;;;;15.93;8.93;;;20.30;67.30;;;;;;5087955;28;20556;-75
2021/04/25 01:26:26;;;;;;;20.38;9.82;;;20.30;67.30;;;;;;5071743;28;20386;-74
2021/04/25 01:28:54;;;;;;;16.63;8.13;;;20.30;67.30;;;;;;5090611;28;20371;-74
2021/04/25 01:31:21;;;;;;;20.45;8.43;;;20.30;67.30;;;;;;5089971;28;20449;-73
2021/04/25 01:33:47;;;;;;;13.95;8.25;;;20.30;67.30;;;;;;5089858;28;20024;-73
2021/04/25 01:36:14;;;;;;;16.35;9.10;;;20.30;67.30;;;;;;5090623;28;20062;-74
2021/04/25 01:38:40;;;;;;;18.80;8.63;;;20.30;67.40;;;;;;5089487;28;20021;-74
2021/04/25 01:41:07;;;;;;;13.30;7.97;;;20.30;67.30;;;;;;5090510;28;20028;-74
2021/04/25 01:43:34;;;;;;;18.38;8.05;;;20.30;67.30;;;;;;5089588;28;20070;-73
2021/04/25 01:46:01;;;;;;;15.98;8.15;;;20.30;67.30;;;;;;5088392;28;20059;-74
2021/04/25 01:48:27;;;;;;;18.42;7.95;;;20.30;67.40;;;;;;5088878;28;20020;-74
2021/04/25 01:50:54;;;;;;;20.55;11.40;;;20.30;67.40;;;;;;5088415;28;20511;-74
2021/04/25 01:53:20;;;;;;;14.45;7.47;;;20.30;67.40;;;;;;5090317;28;20016;-73
2021/04/25 01:55:47;;;;;;;18.60;8.30;;;20.20;67.40;;;;;;5089493;28;20024;-74
2021/04/25 01:58:13;;;;;;;21.58;10.02;;;20.20;67.40;;;;;;5072111;28;20107;-73
2021/04/25 02:00:45;;;;;;;17.55;8.63;;;20.20;67.40;;;;;;5089177;28;20020;-71
2021/04/25 02:03:13;;;;;;;14.05;7.90;;;20.20;67.40;;;;;;5090013;28;20582;-72
2021/04/25 02:05:40;;;;;;;19.27;8.52;;;20.20;67.40;;;;;;5089683;28;20052;-72
2021/04/25 02:08:08;;;;;;;20.90;9.35;;;20.20;67.50;;;;;;5087246;28;20031;-74
2021/04/25 02:10:36;;;;;;;17.50;8.73;;;20.20;67.50;;;;;;5089575;28;20028;-72
2021/04/25 02:13:06;;;;;;;18.00;9.23;;;20.20;67.50;;;;;;5082420;28;20044;-74
2021/04/25 02:15:34;;;;;;;18.30;7.63;;;20.20;67.50;;;;;;5086797;28;20637;-75
2021/04/25 02:18:01;;;;;;;12.48;7.30;;;20.20;67.60;;;;;;5088339;28;20020;-75
2021/04/25 02:20:28;;;;;;;15.82;8.40;;;20.10;67.60;;;;;;5090183;28;20012;-74
2021/04/25 02:22:55;;;;;;;17.48;8.18;;;20.10;67.50;;;;;;5089563;28;20026;-76
2021/04/25 02:25:22;;;;;;;20.23;8.02;;;20.10;68.20;;;;;;5074970;28;20611;-75
2021/04/25 02:27:50;;;;;;;18.23;7.43;;;20.10;67.50;;;;;;5090191;28;20028;-76
2021/04/25 02:30:19;;;;;;;14.30;7.45;;;20.10;68.20;;;;;;5088598;28;20048;-76
2021/04/25 02:32:47;;;;;;;16.75;7.85;;;20.10;67.50;;;;;;5086216;28;20048;-77
2021/04/25 02:35:15;;;;;;;17.83;7.10;;;20.10;67.60;;;;;;5085689;28;20063;-74
2021/04/25 02:37:42;;;;;;;19.40;8.05;;;20.10;67.70;;;;;;5086966;28;20012;-74
2021/04/25 02:40:10;;;;;;;15.38;7.47;;;20.10;67.60;;;;;;5093145;28;20016;-74
2021/04/25 02:42:38;;;;;;;13.32;7.32;;;20.10;67.60;;;;;;5093470;28;20453;-74
2021/04/25 02:45:06;;;;;;;19.20;8.90;;;20.10;67.60;;;;;;5093662;28;20009;-74
2021/04/25 02:47:32;;;;;;;14.48;7.00;;;20.10;67.60;;;;;;5092691;28;20013;-74
2021/04/25 02:49:59;;;;;;;16.50;8.07;;;20.10;67.60;;;;;;5093630;28;20050;-74
2021/04/25 02:52:26;;;;;;;17.38;7.70;;;20.10;67.60;;;;;;5092242;28;20033;-74
2021/04/25 02:54:56;;;;;;;17.55;7.85;;;20.00;67.60;;;;;;5093572;28;20027;-74
2021/04/25 02:57:22;;;;;;;16.15;7.80;;;20.00;67.60;;;;;;5091098;28;20024;-75
2021/04/25 02:59:49;;;;;;;17.50;7.90;;;20.00;67.70;;;;;;5089645;28;20134;-75
2021/04/25 03:02:16;;;;;;;15.57;7.55;;;20.00;68.40;;;;;;5093335;28;20016;-75
2021/04/25 03:04:43;;;;;;;20.75;7.95;;;20.00;67.80;;;;;;5092762;28;20488;-74
2021/04/25 03:07:09;;;;;;;20.05;8.15;;;20.00;67.80;;;;;;5073059;28;20020;-74
2021/04/25 03:09:36;;;;;;;13.60;7.28;;;20.00;67.90;;;;;;5087566;28;20478;-74
2021/04/25 03:12:02;;;;;;;19.10;7.18;;;20.00;67.90;;;;;;5093091;28;20016;-73
2021/04/25 03:14:29;;;;;;;16.02;8.30;;;20.00;67.90;;;;;;5092208;28;20097;-73
2021/04/25 03:16:55;;;;;;;17.60;8.00;;;20.00;67.90;;;;;;5093099;28;20019;-73
2021/04/25 03:19:23;;;;;;;19.13;8.27;;;20.00;67.90;;;;;;5087314;28;20095;-73
2021/04/25 03:21:50;;;;;;;15.43;8.10;;;20.00;68.60;;;;;;5088678;28;20019;-74
2021/04/25 03:24:18;;;;;;;13.20;7.85;;;20.00;68.00;;;;;;5092512;28;20413;-73
2021/04/25 03:26:47;;;;;;;17.40;9.15;;;20.00;68.00;;;;;;5091975;28;20030;-73
2021/04/25 03:29:13;;;;;;;19.30;8.50;;;20.00;68.10;;;;;;5092268;28;20040;-73
2021/04/25 03:31:40;;;;;;;17.20;8.23;;;20.00;68.10;;;;;;5088070;28;20075;-73
2021/04/25 03:34:06;;;;;;;15.73;7.75;;;20.00;68.10;;;;;;5092699;28;20065;-72
2021/04/25 03:36:33;;;;;;;13.82;8.48;;;20.00;68.10;;;;;;5092305;28;20019;-73
2021/04/25 03:39:00;;;;;;;18.20;7.82;;;20.00;68.10;;;;;;5092195;28;20020;-73
2021/04/25 03:41:26;;;;;;;13.63;7.32;;;20.00;68.10;;;;;;5101245;28;20020;-72
2021/04/25 03:43:53;;;;;;;17.60;9.05;;;20.00;68.10;;;;;;5091626;28;20019;-73
2021/04/25 03:46:20;;;;;;;17.45;9.05;;;20.00;68.10;;;;;;5090390;28;20035;-73
2021/04/25 03:48:46;;;;;;;15.93;8.75;;;20.00;68.20;;;;;;5089163;28;20108;-73
2021/04/25 03:51:13;;;;;;;15.38;8.77;;;20.00;68.20;;;;;;5092396;28;20085;-73
2021/04/25 03:53:39;;;;;;;25.80;9.02;;;20.00;68.20;;;;;;5086489;28;20028;-74
2021/04/25 03:56:06;;;;;;;14.88;7.28;;;20.00;68.20;;;;;;5092240;28;20065;-73
2021/04/25 03:58:32;;;;;;;20.35;12.93;;;19.90;68.80;;;;;;5092331;28;20045;-74
2021/04/25 04:00:59;;;;;;;25.20;17.27;;;20.00;68.20;;;;;;5075216;28;20054;-74
2021/04/25 04:03:25;;;;;;;22.85;16.13;;;19.90;68.20;;;;;;5075359;28;20502;-73
2021/04/25 04:05:52;;;;;;;22.67;14.02;;;19.90;68.20;;;;;;5091149;28;20375;-74
2021/04/25 04:08:18;;;;;;;20.15;11.60;;;19.90;68.20;;;;;;5090152;28;20387;-74
2021/04/25 04:10:45;;;;;;;17.35;9.60;;;19.90;68.20;;;;;;5072524;28;20028;-73
2021/04/25 04:13:11;;;;;;;19.98;8.93;;;19.90;68.30;;;;;;5092096;28;20012;-74
2021/04/25 04:15:38;;;;;;;12.93;8.20;;;19.90;68.30;;;;;;5091493;28;20027;-74
2021/04/25 04:18:05;;;;;;;20.15;9.60;;;19.90;68.30;;;;;;5091316;28;20449;-74
2021/04/25 04:20:31;;;;;;;15.43;8.50;;;19.90;68.40;;;;;;5091704;28;20028;-74
2021/04/25 04:23:00;;;;;;;19.77;8.43;;;19.90;68.40;;;;;;5090860;28;20387;-73
2021/04/25 04:25:27;;;;;;;17.13;8.55;;;19.90;68.40;;;;;;5087804;28;20023;-73
2021/04/25 04:27:53;;;;;;;14.07;7.43;;;19.80;68.40;;;;;;5084638;28;20095;-74
2021/04/25 04:30:20;;;;;;;15.70;7.68;;;19.90;68.40;;;;;;5089586;28;20094;-74
2021/04/25 04:32:47;;;;;;;14.23;8.32;;;19.90;68.40;;;;;;5089368;28;20024;-74
2021/04/25 04:35:13;;;;;;;16.40;8.55;;;19.90;68.40;;;;;;5091386;28;20030;-73
2021/04/25 04:37:40;;;;;;;18.23;7.53;;;19.90;68.40;;;;;;5091606;28;20107;-73
2021/04/25 04:40:08;;;;;;;19.92;7.47;;;19.80;68.40;;;;;;5090583;28;20071;-73
2021/04/25 04:42:34;;;;;;;17.17;7.25;;;19.80;68.30;;;;;;5085837;28;20372;-73
2021/04/25 04:45:01;;;;;;;11.80;7.40;;;19.80;68.30;;;;;;5090402;28;20024;-73
2021/04/25 04:47:27;;;;;;;16.48;6.82;;;19.80;68.40;;;;;;5091469;28;20024;-73
2021/04/25 04:49:54;;;;;;;12.95;6.25;;;19.80;68.40;;;;;;5084086;28;20032;-73
2021/04/25 04:52:20;;;;;;;13.88;6.63;;;19.80;68.40;;;;;;5090004;28;20035;-74
2021/04/25 04:54:48;;;;;;;14.25;6.95;;;19.80;68.40;;;;;;5089865;28;20054;-73
2021/04/25 04:57:15;;;;;;;14.70;6.82;;;19.80;68.50;;;;;;5090503;28;20038;-73
2021/04/25 04:59:43;;;;;;;16.42;6.70;;;19.80;68.40;;;;;;5091486;28;20020;-74
2021/04/25 05:02:09;;;;;;;8.38;5.32;;;19.80;68.40;;;;;;5086622;28;20067;-74
2021/04/25 05:04:36;;;;;;;17.98;6.20;;;19.80;68.40;;;;;;5091315;28;20091;-74
2021/04/25 05:07:03;;;;;;;15.60;6.30;;;19.80;69.10;;;;;;5089876;28;20028;-73
2021/04/25 05:09:29;;;;;;;11.45;5.95;;;19.80;68.40;;;;;;5090524;28;20036;-72
2021/04/25 05:11:56;;;;;;;8.98;5.47;;;19.80;68.30;;;;;;5083939;28;20016;-72
2021/04/25 05:14:24;;;;;;;14.00;6.18;;;19.80;68.30;;;;;;5085515;28;20016;-72
2021/04/25 05:16:50;;;;;;;9.52;5.53;;;19.80;68.40;;;;;;5088716;28;20398;-72
2021/04/25 05:19:17;;;;;;;12.65;6.50;;;19.80;68.40;;;;;;5089454;28;20066;-72
2021/04/25 05:21:44;;;;;;;9.38;6.05;;;19.80;68.40;;;;;;5090988;28;20020;-73
2021/04/25 05:24:11;;;;;;;15.05;6.15;;;19.80;68.40;;;;;;5089614;28;20016;-73
2021/04/25 05:26:38;;;;;;;10.63;5.55;;;19.80;68.50;;;;;;5090188;28;20501;-74
2021/04/25 05:29:04;;;;;;;16.73;6.95;;;19.80;68.40;;;;;;5089926;28;20103;-75
2021/04/25 05:31:32;;;;;;;14.48;6.30;;;19.80;68.40;;;;;;5090133;28;20490;-71
2021/04/25 05:33:58;;;;;;;12.15;6.28;;;19.80;68.50;;;;;;5089201;28;20078;-72
2021/04/25 05:36:25;;;;;;;13.35;6.90;;;19.80;68.50;;;;;;5085416;28;20031;-73
2021/04/25 05:38:52;;;;;;;14.43;7.43;;;19.70;68.40;;;;;;5088285;28;20028;-75
2021/04/25 05:41:19;;;;;;;16.73;9.52;;;19.80;68.50;;;;;;5088866;28;20016;-74
2021/04/25 05:43:47;;;;;;;23.50;10.82;;;19.70;68.50;;;;;;5085755;28;20058;-73
2021/04/25 05:46:14;;;;;;;24.58;13.52;;;19.70;68.50;;;;;;5088736;28;20057;-74
2021/04/25 05:49:20;;;;;;;19.65;12.30;;;19.70;68.50;;;;;;5079995;28;20032;-73
2021/04/25 05:52:27;;;;;;;19.88;10.98;;;19.80;68.60;;;;;;5074932;28;20045;-73
2021/04/25 05:54:53;;;;;;;19.55;10.60;;;19.70;68.50;;;;;;5079507;28;20030;-73
2021/04/25 05:57:20;;;;;;;16.40;10.05;;;19.70;68.60;;;;;;5075883;28;20012;-73
2021/04/25 05:59:46;;;;;;;18.90;11.73;;;19.80;69.30;;;;;;5077508;28;20021;-73
2021/04/25 06:02:13;;;;;;;20.83;10.07;;;19.70;68.60;;;;;;5075628;28;20035;-73
2021/04/25 06:04:41;;;;;;;16.15;8.95;;;19.70;68.60;;;;;;5075531;28;20016;-74
2021/04/25 06:07:07;;;;;;;22.85;10.00;;;19.80;69.40;;;;;;5073015;28;20020;-73
2021/04/25 06:09:34;;;;;;;15.70;7.53;;;19.70;68.70;;;;;;5070748;28;20040;-74
2021/04/25 06:12:01;;;;;;;18.75;9.95;;;19.70;68.70;;;;;;5074856;28;20043;-74
2021/04/25 06:14:27;;;;;;;18.60;8.65;;;19.80;68.70;;;;;;5078190;28;20020;-74
2021/04/25 06:16:54;;;;;;;19.20;8.45;;;19.80;68.70;;;;;;5079316;28;20386;-73
2021/04/25 06:19:20;;;;;;;20.77;9.32;;;19.80;68.70;;;;;;5075372;28;20017;-71
2021/04/25 06:21:47;;;;;;;21.00;13.93;;;19.80;68.70;;;;;;5078752;28;20025;-72
2021/04/25 06:24:14;;;;;;;30.45;19.63;;;19.80;68.70;;;;;;5076123;28;20036;-72
2021/04/25 06:26:41;;;;;;;26.27;19.25;;;19.80;68.70;;;;;;5088707;28;20031;-72
2021/04/25 06:29:07;;;;;;;28.52;19.42;;;19.80;68.80;;;;;;5075871;28;20017;-72
2021/04/25 06:31:34;;;;;;;19.25;15.07;;;19.80;68.80;;;;;;5075691;28;20507;-74
2021/04/25 06:34:02;;;;;;;20.65;12.10;;;19.80;68.90;;;;;;5089916;28;20022;-73
2021/04/25 06:36:29;;;;;;;19.55;10.30;;;19.80;69.60;;;;;;5077615;28;20055;-74
2021/04/25 06:38:56;;;;;;;19.00;9.80;;;19.80;69.10;;;;;;5078801;28;20019;-74
2021/04/25 06:41:23;;;;;;;13.70;7.47;;;19.90;69.20;;;;;;5083768;28;20378;-71
2021/04/25 06:43:50;;;;;;;14.60;7.53;;;19.90;69.10;;;;;;5080080;28;20059;-72
2021/04/25 06:46:16;;;;;;;11.43;6.80;;;19.90;69.00;;;;;;5078227;28;20050;-73
2021/04/25 06:48:43;;;;;;;10.65;6.88;;;19.90;68.80;;;;;;5074514;28;20023;-72
2021/04/25 06:51:09;;;;;;;10.48;6.35;;;19.90;68.60;;;;;;5075654;28;20449;-72
2021/04/25 06:53:36;;;;;;;8.35;5.25;;;19.90;68.40;;;;;;5074096;28;20436;-72
2021/04/25 06:56:03;;;;;;;8.55;5.90;;;20.00;68.30;;;;;;5076882;28;20663;-73
2021/04/25 06:58:29;;;;;;;12.95;6.40;;;20.00;68.10;;;;;;5075876;28;20067;-73
2021/04/25 07:00:56;;;;;;;43.40;38.83;;;20.00;68.00;;;;;;5075922;28;20012;-73
2021/04/25 07:03:22;;;;;;;15.30;12.95;;;20.10;67.90;;;;;;5076187;28;20795;-73
2021/04/25 07:05:49;;;;;;;16.35;11.60;;;20.10;67.80;;;;;;5076845;28;20013;-73
2021/04/25 07:08:15;;;;;;;13.55;11.57;;;20.10;67.70;;;;;;5074059;28;20039;-75
2021/04/25 07:10:42;;;;;;;17.08;11.20;;;20.10;67.70;;;;;;5073299;28;20063;-74
2021/04/25 07:13:09;;;;;;;11.90;9.45;;;20.20;67.70;;;;;;5076127;28;20016;-74
2021/04/25 07:15:35;;;;;;;12.52;8.77;;;20.20;67.60;;;;;;5074501;28;20017;-74
2021/04/25 07:18:02;;;;;;;14.18;7.90;;;20.20;67.60;;;;;;5078142;28;20471;-75
2021/04/25 07:20:28;;;;;;;10.00;7.20;;;20.30;67.60;;;;;;5081207;28;20542;-75
2021/04/25 07:22:55;;;;;;;8.45;6.22;;;20.30;67.60;;;;;;5070648;28;20495;-74
2021/04/25 07:25:21;;;;;;;9.73;8.73;;;20.30;67.50;;;;;;5077382;28;20024;-74
2021/04/25 07:27:48;;;;;;;9.10;7.47;;;20.30;67.40;;;;;;5084081;28;20073;-75
2021/04/25 07:30:15;;;;;;;7.30;6.60;;;20.40;67.40;;;;;;5082264;28;20502;-74
2021/04/25 07:32:42;;;;;;;13.35;6.00;;;20.50;67.30;;;;;;5080044;28;20024;-74
2021/04/25 07:35:10;;;;;;;9.90;6.18;;;20.50;67.20;;;;;;5079145;28;20032;-74
2021/04/25 07:37:37;;;;;;;5.78;4.65;;;20.60;66.90;;;;;;5076757;28;20005;-73
2021/04/25 07:40:05;;;;;;;6.32;4.25;;;20.60;66.80;;;;;;5087167;28;20115;-74
2021/04/25 07:42:33;;;;;;;9.10;4.05;;;20.70;67.00;;;;;;5088974;28;20025;-74
2021/04/25 07:44:59;;;;;;;8.20;3.92;;;20.70;66.60;;;;;;5090784;28;20085;-73
2021/04/25 07:47:26;;;;;;;12.27;4.63;;;20.70;66.50;;;;;;5082014;28;20387;-73
2021/04/25 07:49:52;;;;;;;6.25;3.70;;;20.80;66.60;;;;;;5077688;28;20063;-73
2021/04/25 07:52:19;;;;;;;8.38;4.22;;;20.80;66.90;;;;;;5080211;28;20012;-74
2021/04/25 07:54:45;;;;;;;5.70;3.58;;;20.90;66.20;;;;;;5079197;28;20127;-73
2021/04/25 07:57:12;;;;;;;7.32;3.53;;;20.90;65.60;;;;;;5080345;28;20084;-73
2021/04/25 07:59:38;;;;;;;9.25;4.43;;;21.00;65.10;;;;;;5077099;28;20394;-74
2021/04/25 08:02:05;;;;;;;5.80;3.38;;;21.00;64.90;;;;;;5078778;28;20020;-74
2021/04/25 08:04:31;;;;;;;7.35;3.45;;;21.10;65.00;;;;;;5072614;28;20357;-74
2021/04/25 08:06:58;;;;;;;3.92;3.50;;;21.10;65.10;;;;;;5079376;28;20019;-74
2021/04/25 08:09:24;;;;;;;7.72;3.88;;;21.10;64.80;;;;;;5080120;28;20032;-73
2021/04/25 08:11:51;;;;;;;9.45;4.60;;;21.10;64.60;;;;;;5077251;28;20538;-75
2021/04/25 08:14:18;;;;;;;6.38;3.67;;;21.20;64.80;;;;;;5072334;28;20032;-76
2021/04/25 08:16:44;;;;;;;5.88;3.80;;;21.20;64.90;;;;;;5076144;28;20364;-75
2021/04/25 08:19:10;;;;;;;7.43;3.58;;;21.30;65.00;;;;;;5079406;28;20012;-76
2021/04/25 08:21:37;;;;;;;7.20;3.17;;;21.30;65.20;;;;;;5073947;28;20035;-75
2021/04/25 08:24:04;;;;;;;5.13;2.83;;;21.30;65.50;;;;;;5076036;28;20471;-76
2021/04/25 08:26:31;;;;;;;5.30;2.65;;;21.40;65.40;;;;;;5075231;28;20021;-75
2021/04/25 08:28:57;;;;;;;5.20;3.20;;;21.50;64.80;;;;;;5075149;28;20070;-75
2021/04/25 08:31:24;;;;;;;9.50;4.10;;;21.50;64.60;;;;;;5077032;28;20371;-76
2021/04/25 08:33:50;;;;;;;4.45;3.35;;;21.60;64.00;;;;;;5073094;28;20123;-76
2021/04/25 08:36:17;;;;;;;6.07;3.20;;;21.60;64.20;;;;;;5081038;28;20066;-76
2021/04/25 08:38:45;;;;;;;6.57;4.00;;;21.70;64.10;;;;;;5077346;28;20048;-74
2021/04/25 08:41:15;;;;;;;9.43;3.00;;;21.70;63.40;;;;;;5082960;28;20070;-74
2021/04/25 08:43:44;;;;;;;9.73;4.25;;;21.80;63.20;;;;;;5082412;28;20013;-75
2021/04/25 08:46:14;;;;;;;6.00;2.97;;;21.90;62.60;;;;;;5090802;28;20020;-74
2021/04/25 08:48:41;;;;;;;11.55;3.22;;;21.90;62.10;;;;;;5082413;28;20028;-74
2021/04/25 08:51:10;;;;;;;7.13;3.83;;;22.00;61.70;;;;;;5090360;28;20032;-74
2021/04/25 08:53:39;;;;;;;8.77;3.83;;;22.00;61.40;;;;;;5085462;28;20059;-74
2021/04/25 08:56:07;;;;;;;7.60;3.33;;;22.10;60.90;;;;;;5077844;28;20026;-74
2021/04/25 08:58:36;;;;;;;7.82;3.30;;;22.20;61.10;;;;;;5081845;28;20013;-74
2021/04/25 09:01:04;;;;;;;6.90;3.58;;;22.30;61.00;;;;;;5077755;28;20024;-74
2021/04/25 09:03:33;;;;;;;10.38;3.30;;;22.40;60.50;;;;;;5081198;28;20012;-73
2021/04/25 09:06:01;;;;;;;3.67;2.65;;;22.40;60.00;;;;;;5082622;28;20126;-73
2021/04/25 09:08:57;;;;;;;13.73;4.60;;;22.50;59.60;;;;;;5079662;28;20013;-74
2021/04/25 09:11:26;;;;;;;12.55;4.00;;;22.60;59.40;;;;;;5076510;28;20036;-74
2021/04/25 09:14:14;;;;;;;7.70;3.25;;;22.60;58.90;;;;;;5082567;28;20367;-74
2021/04/25 09:16:43;;;;;;;6.10;3.22;;;22.70;58.70;;;;;;5090314;28;20024;-74
2021/04/25 09:19:09;;;;;;;6.57;3.65;;;22.70;58.40;;;;;;5090899;28;20505;-74
2021/04/25 09:21:59;;;;;;;8.27;3.30;;;22.70;58.10;;;;;;5089744;28;20483;-74
2021/04/25 09:24:31;;;;;;;6.57;3.25;;;22.70;57.80;;;;;;5077634;28;20111;-74
2021/04/25 09:26:59;;;;;;;6.47;3.65;;;22.70;57.50;;;;;;5072009;28;20027;-74
2021/04/25 09:29:27;;;;;;;6.65;3.28;;;22.80;57.10;;;;;;5090270;28;20028;-74
2021/04/25 09:31:55;;;;;;;6.47;2.72;;;22.80;57.30;;;;;;5088786;28;20043;-74
2021/04/25 09:34:30;;;;;;;12.82;3.47;;;22.90;57.20;;;;;;5089199;28;20066;-74
2021/04/25 09:37:10;;;;;;;7.40;2.72;;;22.90;56.80;;;;;;5090703;28;20097;-74
2021/04/25 09:39:38;;;;;;;7.68;3.28;;;23.00;56.30;;;;;;5087800;28;20145;-74
2021/04/25 09:42:07;;;;;;;10.25;4.38;;;23.00;56.60;;;;;;5090411;28;20110;-74
2021/04/25 09:44:37;;;;;;;10.15;3.60;;;23.00;56.80;;;;;;5090197;28;20008;-74
2021/04/25 09:47:05;;;;;;;9.27;3.70;;;23.00;56.50;;;;;;5088974;28;20020;-75
2021/04/25 09:49:52;;;;;;;5.90;3.60;;;23.10;56.50;;;;;;5090468;28;20028;-74
2021/04/25 09:52:35;;;;;;;9.52;3.75;;;23.10;56.50;;;;;;5088517;28;20032;-74
2021/04/25 09:55:15;;;;;;;10.82;4.25;;;23.10;56.30;;;;;;5089875;28;20066;-74
2021/04/25 09:57:42;;;;;;;10.90;4.20;;;23.10;56.40;;;;;;5085528;28;20367;-74
2021/04/25 10:00:09;;;;;;;11.85;4.30;;;23.10;56.30;;;;;;5089507;28;20016;-73
2021/04/25 10:03:01;;;;;;;6.53;3.72;;;23.10;56.30;;;;;;5090907;28;20110;-74
2021/04/25 10:05:29;;;;;;;8.65;3.50;;;23.10;56.20;;;;;;5083013;28;20541;-74
2021/04/25 10:07:57;;;;;;;8.65;3.95;;;23.10;56.20;;;;;;5088440;28;20012;-74
2021/04/25 10:10:24;;;;;;;10.00;3.47;;;23.10;56.10;;;;;;5088142;28;20412;-74
2021/04/25 10:12:50;;;;;;;9.13;3.80;;;23.20;55.80;;;;;;5083705;28;20166;-74
2021/04/25 10:15:19;;;;;;;7.05;3.58;;;23.20;55.60;;;;;;5090071;28;20044;-75
2021/04/25 10:17:49;;;;;;;12.48;3.78;;;23.20;55.80;;;;;;5086500;28;20024;-75
2021/04/25 10:20:19;;;;;;;7.90;3.22;;;23.20;55.60;;;;;;5088092;28;20021;-75
2021/04/25 10:22:48;;;;;;;14.95;3.92;;;23.20;55.40;;;;;;5089086;28;20337;-77
2021/04/25 10:25:21;;;;;;;10.45;3.90;;;23.20;55.30;;;;;;5090124;28;20479;-74
2021/04/25 10:28:00;;;;;;;5.78;3.35;;;23.30;55.20;;;;;;5089694;28;20035;-74
2021/04/25 10:30:41;;;;;;;11.07;4.55;;;23.30;55.10;;;;;;5083144;28;20044;-74
2021/04/25 10:33:08;;;;;;;9.38;3.25;;;23.30;55.00;;;;;;5089957;28;20513;-74
2021/04/25 10:35:35;;;;;;;5.70;3.50;;;23.40;54.90;;;;;;5088922;28;20103;-74
2021/04/25 10:38:06;;;;;;;10.80;3.28;;;23.40;55.00;;;;;;5090056;28;20023;-74
2021/04/25 10:40:40;;;;;;;11.77;3.30;;;23.40;54.90;;;;;;5087406;28;20008;-74
2021/04/25 10:43:11;;;;;;;11.23;3.95;;;23.40;54.90;;;;;;5078767;28;20027;-74
2021/04/25 10:45:59;;;;;;;11.30;3.92;;;23.40;54.90;;;;;;5083210;28;20576;-74
2021/04/25 10:48:36;;;;;;;10.15;3.30;;;23.40;54.80;;;;;;5089120;28;20028;-73
2021/04/25 10:51:09;;;;;;;11.63;3.80;;;23.40;55.00;;;;;;5069520;28;20074;-74
2021/04/25 10:53:43;;;;;;;12.10;3.03;;;23.40;55.10;;;;;;5089738;28;20024;-77
2021/04/25 10:56:13;;;;;;;9.70;3.83;;;23.30;54.80;;;;;;5084592;28;20020;-75
2021/04/25 10:58:45;;;;;;;8.80;3.10;;;23.30;54.60;;;;;;5084208;28;20101;-75
2021/04/25 11:01:36;;;;;;;7.70;3.10;;;23.30;54.60;;;;;;5089814;28;20467;-75
2021/04/25 11:04:03;;;;;;;9.55;3.40;;;23.20;54.30;;;;;;5089015;28;20061;-76
2021/04/25 11:06:30;;;;;;;6.75;3.50;;;23.10;54.50;;;;;;5087170;28;20019;-76
2021/04/25 11:08:57;;;;;;;13.07;4.07;;;23.10;54.60;;;;;;5087730;28;20032;-75
2021/04/25 11:11:38;;;;;;;11.20;4.78;;;23.00;54.70;;;;;;5078717;28;20032;-76
2021/04/25 11:14:06;;;;;;;8.52;4.60;;;23.00;55.10;;;;;;5087996;28;20021;-77
2021/04/25 11:16:36;;;;;;;9.98;4.80;;;22.90;55.60;;;;;;5087700;28;20111;-76
2021/04/25 11:19:04;;;;;;;9.52;4.82;;;22.90;56.00;;;;;;5079576;28;20391;-76
2021/04/25 11:21:32;;;;;;;8.95;5.35;;;22.90;56.30;;;;;;5085133;28;20016;-76
2021/04/25 11:24:05;;;;;;;8.15;4.00;;;22.80;56.50;;;;;;5086956;28;20024;-74
2021/04/25 11:26:42;;;;;;;14.25;5.15;;;22.80;56.80;;;;;;5089168;28;20540;-73
2021/04/25 11:29:18;;;;;;;10.88;5.45;;;22.80;57.10;;;;;;5091026;28;20032;-74
2021/04/25 11:31:54;;;;;;;12.50;5.57;;;22.70;57.40;;;;;;5083346;28;20048;-76
2021/04/25 11:34:34;;;;;;;10.90;4.50;;;22.70;57.70;;;;;;5082695;28;20052;-76
2021/04/25 11:37:19;;;;;;;11.00;4.70;;;22.60;57.90;;;;;;5084458;28;20020;-74
2021/04/25 11:39:45;;;;;;;;;;;22.60;58.30;;;;;;5087523;28;20017;-75
2021/04/25 11:42:44;;;;;;;16.75;4.50;;;22.50;58.60;;;;;;5085530;28;19908;-74
2021/04/25 11:45:19;;;;;;;10.02;4.93;;;22.50;58.80;;;;;;5086519;28;20044;-75
2021/04/25 11:47:56;;;;;;;13.23;4.65;;;22.50;59.20;;;;;;5085303;28;20738;-74
2021/04/25 11:50:32;;;;;;;11.63;5.60;;;22.50;59.50;;;;;;5088079;28;20032;-76
2021/04/25 11:52:59;;;;;;;9.13;4.35;;;22.50;59.80;;;;;;5068124;28;20433;-76
2021/04/25 11:55:27;;;;;;;16.60;6.35;;;22.50;60.00;;;;;;5084570;28;20020;-76
2021/04/25 11:57:54;;;;;;;11.57;4.45;;;22.40;60.20;;;;;;5082122;28;20374;-73
2021/04/25 12:00:24;;;;;;;11.57;4.10;;;22.50;60.60;;;;;;5089334;28;20106;-73
2021/04/25 12:02:57;;;;;;;5.20;3.75;;;22.50;60.80;;;;;;5086983;28;20110;-77
2021/04/25 12:05:28;;;;;;;11.02;5.13;;;22.50;61.10;;;;;;5086625;28;20020;-75
2021/04/25 12:08:02;;;;;;;10.48;4.57;;;22.40;61.50;;;;;;5088158;28;20031;-74
2021/04/25 12:10:51;;;;;;;12.15;4.60;;;22.50;62.30;;;;;;5086866;28;20515;-74
2021/04/25 12:13:22;;;;;;;11.27;4.50;;;22.60;62.60;;;;;;5087874;28;20031;-78
2021/04/25 12:16:03;;;;;;;8.35;4.10;;;22.70;62.90;;;;;;5084187;28;20016;-76
2021/04/25 12:18:37;;;;;;;9.88;4.50;;;22.90;62.60;;;;;;5086682;28;20008;-79
2021/04/25 12:21:23;;;;;;;12.18;4.38;;;23.00;62.50;;;;;;5088248;28;20024;-74
2021/04/25 12:23:53;;;;;;;12.25;4.68;;;23.20;62.20;;;;;;5087898;28;20015;-73
2021/04/25 12:26:24;;;;;;;12.05;5.35;;;23.30;62.00;;;;;;5086643;28;20027;-72
2021/04/25 12:28:58;;;;;;;11.05;6.43;;;23.50;62.30;;;;;;5082540;28;20510;-72
2021/04/25 12:31:40;;;;;;;14.82;7.05;;;23.50;61.70;;;;;;5011500;28;2102596;-74
2021/04/25 12:34:07;;;;;;;13.73;6.82;;;23.60;61.90;;;;;;5086691;28;20023;-72
2021/04/25 12:36:46;;;;;;;13.77;5.03;;;23.70;61.90;;;;;;5070093;28;20421;-72
2021/04/25 12:39:13;;;;;;;12.63;4.50;;;23.70;62.00;;;;;;5074046;28;20111;-71
2021/04/25 12:41:45;;;;;;;9.15;4.93;;;23.70;62.20;;;;;;5085329;28;20028;-72
2021/04/25 12:44:13;;;;;;;17.23;4.75;;;23.70;62.40;;;;;;5082836;28;20058;-72
2021/04/25 12:46:40;;;;;;;11.70;5.38;;;23.70;62.70;;;;;;5085672;28;20052;-72